Time;durP1;ratioP1;P1;durP2;ratioP2;P2;SDS_P1;SDS_P2;PMS_P1;PMS_P2;Temp;Humidity;BMP_temperature;BMP_pressure;BME280_temperature;BME280_humidity;BME280_pressure;Samples;Min_cycle;Max_cycle;Signal;HPM_P1;HPM_P2
2021/01/01 00:01:17;;;;;;;63.13;32.63;;;2.40;91.00;;;;;;5065558;28;20202;-79
2021/01/01 00:03:44;;;;;;;61.93;32.73;;;2.30;90.90;;;;;;5076673;28;20201;-79
2021/01/01 00:06:13;;;;;;;63.30;32.83;;;2.30;90.90;;;;;;5064872;28;20201;-81
2021/01/01 00:08:40;;;;;;;55.53;30.37;;;2.40;90.90;;;;;;5063000;28;20572;-81
2021/01/01 00:11:08;;;;;;;58.47;31.00;;;2.30;90.70;;;;;;5075269;28;20507;-80
2021/01/01 00:13:36;;;;;;;57.93;32.30;;;2.30;90.90;;;;;;5063425;28;20591;-81
2021/01/01 00:16:04;;;;;;;64.67;34.97;;;2.40;90.80;;;;;;5071182;28;20739;-81
2021/01/01 00:18:32;;;;;;;61.17;32.77;;;2.30;90.70;;;;;;5084539;28;20196;-81
2021/01/01 00:20:59;;;;;;;62.63;34.43;;;2.20;90.70;;;;;;5057973;28;20206;-81
2021/01/01 00:23:27;;;;;;;61.67;35.07;;;2.30;90.60;;;;;;5073800;28;20654;-80
2021/01/01 00:25:55;;;;;;;59.70;33.90;;;2.30;90.60;;;;;;5073898;28;20526;-80
2021/01/01 00:28:22;;;;;;;64.47;35.00;;;2.30;90.70;;;;;;5063548;28;20236;-81
2021/01/01 00:30:50;;;;;;;61.20;34.43;;;2.30;90.80;;;;;;5068769;28;20222;-81
2021/01/01 00:33:17;;;;;;;60.63;34.53;;;2.30;90.90;;;;;;5077116;28;20197;-82
2021/01/01 00:35:45;;;;;;;62.57;33.80;;;2.30;91.00;;;;;;5064030;28;20229;-82
2021/01/01 00:38:12;;;;;;;64.40;35.77;;;2.30;91.00;;;;;;5061423;28;20208;-81
2021/01/01 00:40:41;;;;;;;62.80;35.60;;;2.30;91.20;;;;;;5077127;28;20547;-82
2021/01/01 00:43:08;;;;;;;61.77;33.40;;;2.30;91.10;;;;;;5068606;28;20353;-82
2021/01/01 00:45:36;;;;;;;59.73;34.67;;;2.30;91.20;;;;;;5042594;28;20263;-79
2021/01/01 00:48:04;;;;;;;60.93;33.90;;;2.30;91.20;;;;;;5072908;28;20210;-81
2021/01/01 00:50:32;;;;;;;63.63;35.13;;;2.20;91.30;;;;;;5069542;28;20201;-81
2021/01/01 00:52:59;;;;;;;65.27;33.70;;;2.20;91.30;;;;;;5067519;28;20196;-83
2021/01/01 00:55:27;;;;;;;58.40;32.70;;;2.20;91.40;;;;;;5076881;28;20228;-81
2021/01/01 00:57:56;;;;;;;61.83;33.83;;;2.20;91.50;;;;;;5065492;28;20851;-82
2021/01/01 01:00:23;;;;;;;63.20;33.97;;;2.20;91.40;;;;;;5068360;28;20668;-82
2021/01/01 01:02:51;;;;;;;60.63;33.80;;;2.20;91.50;;;;;;5093822;28;20247;-82
2021/01/01 01:05:18;;;;;;;65.60;34.40;;;2.20;91.60;;;;;;5084667;28;20504;-81
2021/01/01 01:07:45;;;;;;;70.13;36.03;;;2.20;91.50;;;;;;5074585;28;20213;-82
2021/01/01 01:10:13;;;;;;;70.77;38.33;;;2.20;91.60;;;;;;5081545;28;20289;-81
2021/01/01 01:12:41;;;;;;;71.80;37.57;;;2.20;91.30;;;;;;5079708;28;20252;-81
2021/01/01 01:15:10;;;;;;;68.77;39.67;;;2.40;91.30;;;;;;5082988;28;20197;-81
2021/01/01 01:17:40;;;;;;;73.20;38.53;;;2.20;91.20;;;;;;5100831;28;20342;-81
2021/01/01 01:20:09;;;;;;;74.30;40.90;;;2.20;91.20;;;;;;5098629;28;20201;-80
2021/01/01 01:22:37;;;;;;;78.63;41.80;;;2.20;91.10;;;;;;5082382;28;20771;-80
2021/01/01 01:25:06;;;;;;;79.73;43.00;;;2.20;91.20;;;;;;5083650;28;20255;-80
2021/01/01 01:27:34;;;;;;;77.73;43.27;;;2.20;91.20;;;;;;5075729;28;20209;-82
2021/01/01 01:30:03;;;;;;;87.90;45.23;;;2.20;91.30;;;;;;5069387;28;20517;-80
2021/01/01 01:32:32;;;;;;;85.43;44.83;;;2.30;91.30;;;;;;5087114;28;20616;-81
2021/01/01 01:35:02;;;;;;;87.47;47.23;;;2.20;91.20;;;;;;5079379;28;20208;-79
2021/01/01 01:37:29;;;;;;;90.00;46.33;;;2.20;91.40;;;;;;5067653;28;20204;-81
2021/01/01 01:39:56;;;;;;;96.57;50.00;;;2.20;91.30;;;;;;5073938;28;20315;-81
2021/01/01 01:42:24;;;;;;;92.30;49.10;;;2.30;91.30;;;;;;5077229;28;20207;-80
2021/01/01 01:44:52;;;;;;;93.63;47.60;;;2.20;91.30;;;;;;5073079;28;20292;-81
2021/01/01 01:47:21;;;;;;;89.83;48.13;;;2.20;91.30;;;;;;5073619;28;20223;-81
2021/01/01 01:49:50;;;;;;;81.53;44.07;;;2.20;91.30;;;;;;5079219;28;20211;-82
2021/01/01 01:52:18;;;;;;;90.90;47.43;;;2.20;91.10;;;;;;5070253;28;20198;-81
2021/01/01 01:54:49;;;;;;;82.20;46.57;;;2.20;91.20;;;;;;5087177;28;20803;-81
2021/01/01 01:57:17;;;;;;;89.13;46.67;;;2.20;91.30;;;;;;5061420;28;20237;-81
2021/01/01 01:59:47;;;;;;;87.80;46.37;;;2.20;91.30;;;;;;5075384;28;20232;-80
2021/01/01 02:02:15;;;;;;;88.17;44.33;;;2.20;91.20;;;;;;5084888;28;20204;-81
2021/01/01 02:04:44;;;;;;;88.63;45.77;;;2.20;91.30;;;;;;5077435;28;20712;-81
2021/01/01 02:07:12;;;;;;;86.97;46.00;;;2.10;91.20;;;;;;5062222;28;20213;-81
2021/01/01 02:09:40;;;;;;;88.27;45.87;;;2.10;91.10;;;;;;5068698;28;20302;-81
2021/01/01 02:12:08;;;;;;;80.03;46.40;;;2.10;91.20;;;;;;5070860;28;20292;-80
2021/01/01 02:14:35;;;;;;;88.63;46.33;;;2.10;91.10;;;;;;5069548;28;20200;-81
2021/01/01 02:17:03;;;;;;;80.20;43.13;;;2.10;91.20;;;;;;5082557;28;20450;-80
2021/01/01 02:19:30;;;;;;;82.50;42.87;;;2.10;91.00;;;;;;5064612;28;20877;-81
2021/01/01 02:21:59;;;;;;;87.97;45.50;;;2.10;90.80;;;;;;5075870;28;20201;-83
2021/01/01 02:24:28;;;;;;;78.23;41.53;;;2.10;90.80;;;;;;5059078;28;20694;-79
2021/01/01 02:26:56;;;;;;;77.83;42.17;;;2.10;90.80;;;;;;5067997;28;20229;-82
2021/01/01 02:29:23;;;;;;;81.17;43.40;;;2.10;90.80;;;;;;5094418;28;20185;-81
2021/01/01 02:31:53;;;;;;;80.23;42.67;;;2.10;90.90;;;;;;5084969;28;20291;-81
2021/01/01 02:34:20;;;;;;;74.93;41.00;;;2.10;90.70;;;;;;5072899;28;20288;-82
2021/01/01 02:36:48;;;;;;;78.10;42.30;;;2.00;90.90;;;;;;5074388;28;20224;-80
2021/01/01 02:39:15;;;;;;;80.83;42.30;;;2.10;91.00;;;;;;5063922;28;20652;-79
2021/01/01 02:41:44;;;;;;;72.20;39.50;;;2.00;91.00;;;;;;5075434;28;20208;-81
2021/01/01 02:44:11;;;;;;;77.27;41.47;;;2.00;91.00;;;;;;5075041;28;20277;-81
2021/01/01 02:46:40;;;;;;;79.00;41.77;;;2.00;91.10;;;;;;5081921;28;20233;-81
2021/01/01 02:49:07;;;;;;;79.33;40.70;;;2.00;91.20;;;;;;5087369;28;20205;-84
2021/01/01 02:51:35;;;;;;;80.20;41.13;;;2.00;91.30;;;;;;5074017;28;20286;-81
2021/01/01 02:54:02;;;;;;;80.53;42.67;;;2.00;91.20;;;;;;5060223;28;20510;-81
2021/01/01 02:56:30;;;;;;;77.87;40.80;;;1.90;91.00;;;;;;5059785;28;20238;-80
2021/01/01 02:58:59;;;;;;;80.73;41.50;;;1.90;91.10;;;;;;5073905;28;20220;-82
2021/01/01 03:01:26;;;;;;;86.37;42.67;;;1.90;91.20;;;;;;5060875;28;20788;-81
2021/01/01 03:03:54;;;;;;;76.40;43.23;;;1.90;91.10;;;;;;5085424;28;20193;-83
2021/01/01 03:06:21;;;;;;;83.73;43.57;;;1.90;90.90;;;;;;5083956;28;20205;-81
2021/01/01 03:08:48;;;;;;;73.13;41.33;;;1.90;91.00;;;;;;5094346;28;20182;-81
2021/01/01 03:11:16;;;;;;;71.17;37.53;;;2.00;91.00;;;;;;5097175;28;20188;-81
2021/01/01 03:13:44;;;;;;;74.07;40.07;;;1.90;90.90;;;;;;5105632;28;20195;-80
2021/01/01 03:16:12;;;;;;;76.00;39.93;;;1.90;90.90;;;;;;5082477;28;20228;-79
2021/01/01 03:18:40;;;;;;;69.60;40.10;;;1.80;90.90;;;;;;5084929;28;20397;-80
2021/01/01 03:21:07;;;;;;;75.67;39.67;;;1.80;91.00;;;;;;5087779;28;20632;-79
2021/01/01 03:23:36;;;;;;;72.00;38.03;;;1.80;91.00;;;;;;5082464;28;20201;-79
2021/01/01 03:26:04;;;;;;;75.80;38.60;;;1.90;91.10;;;;;;5086737;28;20189;-82
2021/01/01 03:28:32;;;;;;;74.10;38.37;;;1.80;91.00;;;;;;5090949;28;20429;-81
2021/01/01 03:30:59;;;;;;;76.27;39.53;;;1.80;91.00;;;;;;5064185;28;20261;-81
2021/01/01 03:33:27;;;;;;;76.57;39.57;;;1.80;91.10;;;;;;5068330;28;21095;-80
2021/01/01 03:35:55;;;;;;;73.60;38.83;;;1.90;91.20;;;;;;5080220;28;20227;-81
2021/01/01 03:38:22;;;;;;;71.30;38.40;;;1.90;91.20;;;;;;5066008;28;20273;-80
2021/01/01 03:40:50;;;;;;;73.77;39.23;;;1.90;91.20;;;;;;5066088;28;20228;-82
2021/01/01 03:43:17;;;;;;;76.90;39.07;;;1.80;91.10;;;;;;5073910;28;20198;-81
2021/01/01 03:45:45;;;;;;;71.93;39.43;;;1.90;91.20;;;;;;5070223;28;20207;-82
2021/01/01 03:48:12;;;;;;;69.03;37.93;;;1.90;91.20;;;;;;5089120;28;20212;-82
2021/01/01 03:50:40;;;;;;;68.67;36.57;;;1.90;91.30;;;;;;5075733;28;20188;-81
2021/01/01 03:53:08;;;;;;;70.90;38.83;;;1.90;91.20;;;;;;5067155;28;20412;-79
2021/01/01 03:55:35;;;;;;;70.27;38.27;;;1.90;91.30;;;;;;5083545;28;20404;-80
2021/01/01 03:58:03;;;;;;;65.40;36.70;;;1.90;91.10;;;;;;5093736;28;20231;-82
2021/01/01 04:00:31;;;;;;;74.43;39.63;;;2.00;90.90;;;;;;5079554;28;20260;-81
2021/01/01 04:02:58;;;;;;;68.50;35.73;;;1.90;90.90;;;;;;5071861;28;20197;-81
2021/01/01 04:05:26;;;;;;;65.17;33.50;;;1.90;90.90;;;;;;5073858;28;20207;-81
2021/01/01 04:07:54;;;;;;;70.27;35.67;;;1.90;90.80;;;;;;5066249;28;20206;-82
2021/01/01 04:10:22;;;;;;;78.63;36.50;;;1.80;90.80;;;;;;5061432;28;20201;-81
2021/01/01 04:12:49;;;;;;;74.30;35.17;;;1.80;90.90;;;;;;5073906;28;20597;-82
2021/01/01 04:15:16;;;;;;;64.90;33.97;;;1.80;90.80;;;;;;5063924;28;20554;-81
2021/01/01 04:17:44;;;;;;;69.20;34.60;;;1.80;90.90;;;;;;5070170;28;20572;-80
2021/01/01 04:20:13;;;;;;;66.47;33.87;;;1.80;91.00;;;;;;5066383;28;20201;-81
2021/01/01 04:22:40;;;;;;;69.17;34.53;;;1.80;91.10;;;;;;5067116;28;20733;-81
2021/01/01 04:25:11;;;;;;;65.50;34.47;;;1.80;91.10;;;;;;5076064;28;20196;-81
2021/01/01 04:27:38;;;;;;;67.30;34.33;;;1.80;91.10;;;;;;5066466;28;20416;-80
2021/01/01 04:30:07;;;;;;;69.07;34.27;;;1.80;91.10;;;;;;5066932;28;20193;-81
2021/01/01 04:32:35;;;;;;;71.23;34.97;;;1.80;91.20;;;;;;5074913;28;20297;-81
2021/01/01 04:35:03;;;;;;;67.77;34.57;;;1.80;91.30;;;;;;5076876;28;20572;-81
2021/01/01 04:37:31;;;;;;;66.60;33.80;;;1.80;91.40;;;;;;5071580;28;20226;-80
2021/01/01 04:39:59;;;;;;;67.70;32.93;;;1.80;91.40;;;;;;5072600;28;20197;-81
2021/01/01 04:42:28;;;;;;;64.70;33.77;;;1.80;91.30;;;;;;5063131;28;20212;-81
2021/01/01 04:44:56;;;;;;;65.70;34.47;;;1.80;91.30;;;;;;5087697;28;20436;-81
2021/01/01 04:47:26;;;;;;;62.27;32.20;;;1.80;91.30;;;;;;5070897;28;20256;-80
2021/01/01 04:49:53;;;;;;;65.00;33.33;;;1.70;91.20;;;;;;5055351;28;20205;-81
2021/01/01 04:52:24;;;;;;;65.37;34.00;;;1.90;91.40;;;;;;5071629;28;20332;-83
2021/01/01 04:54:53;;;;;;;63.67;33.53;;;1.70;91.30;;;;;;5064743;28;20212;-81
2021/01/01 04:57:21;;;;;;;62.33;34.13;;;1.70;91.30;;;;;;5072071;28;20224;-81
2021/01/01 04:59:49;;;;;;;62.47;33.57;;;1.80;91.40;;;;;;5065742;28;20570;-80
2021/01/01 05:02:17;;;;;;;72.43;34.27;;;1.80;91.50;;;;;;5065421;28;20553;-80
2021/01/01 05:04:46;;;;;;;66.90;35.43;;;1.80;91.60;;;;;;5073740;28;20749;-81
2021/01/01 05:07:17;;;;;;;64.07;34.47;;;1.80;91.60;;;;;;5068503;28;20208;-79
2021/01/01 05:09:45;;;;;;;66.63;33.47;;;1.80;91.40;;;;;;5060678;28;20906;-82
2021/01/01 05:12:14;;;;;;;62.87;34.87;;;1.80;91.30;;;;;;5074267;28;20197;-78
2021/01/01 05:14:42;;;;;;;62.90;34.97;;;1.80;91.40;;;;;;5063833;28;20209;-82
2021/01/01 05:17:11;;;;;;;66.13;33.77;;;1.80;91.40;;;;;;5065172;28;20315;-80
2021/01/01 05:19:39;;;;;;;65.47;32.77;;;1.80;91.20;;;;;;5069194;28;20202;-81
2021/01/01 05:22:09;;;;;;;66.80;34.70;;;1.80;91.20;;;;;;5081295;28;20225;-81
2021/01/01 05:24:39;;;;;;;58.07;29.60;;;1.80;91.10;;;;;;5093719;28;20537;-80
2021/01/01 05:27:11;;;;;;;62.73;32.47;;;1.70;91.10;;;;;;5095334;28;20181;-81
2021/01/01 05:29:43;;;;;;;65.73;32.37;;;1.80;91.00;;;;;;5066722;28;20575;-80
2021/01/01 05:32:11;;;;;;;67.77;34.93;;;1.70;91.00;;;;;;5081798;28;20201;-80
2021/01/01 05:34:42;;;;;;;65.03;32.73;;;1.70;91.10;;;;;;5071053;28;20556;-81
2021/01/01 05:37:10;;;;;;;63.73;34.17;;;1.80;91.20;;;;;;5069414;28;20395;-82
2021/01/01 05:39:37;;;;;;;71.10;35.03;;;1.60;91.20;;;;;;5075223;28;20469;-81
2021/01/01 05:42:05;;;;;;;71.17;36.77;;;1.70;91.30;;;;;;5074386;28;20749;-81
2021/01/01 05:44:33;;;;;;;68.33;34.20;;;1.70;91.30;;;;;;5094179;28;20240;-82
2021/01/01 05:47:05;;;;;;;65.80;33.43;;;1.80;91.50;;;;;;5095164;28;20197;-80
2021/01/01 05:49:41;;;;;;;63.57;32.87;;;1.70;91.20;;;;;;5089240;28;20226;-81
2021/01/01 05:52:12;;;;;;;64.67;32.50;;;1.60;91.10;;;;;;5104168;28;20184;-81
2021/01/01 05:54:41;;;;;;;62.00;31.90;;;1.70;91.20;;;;;;5097088;28;20522;-80
2021/01/01 05:57:10;;;;;;;64.30;31.73;;;1.70;91.30;;;;;;5097537;28;20228;-80
2021/01/01 05:59:39;;;;;;;57.17;32.20;;;1.70;91.10;;;;;;5090575;28;20739;-82
2021/01/01 06:02:08;;;;;;;63.43;33.60;;;1.70;91.10;;;;;;5076869;28;20307;-81
2021/01/01 06:04:36;;;;;;;65.17;33.10;;;1.70;91.30;;;;;;5068623;28;20197;-81
2021/01/01 06:07:06;;;;;;;68.63;34.43;;;1.60;91.30;;;;;;5094258;28;20197;-81
2021/01/01 06:09:35;;;;;;;61.83;31.57;;;1.60;91.30;;;;;;5078587;28;20319;-80
2021/01/01 06:12:07;;;;;;;66.93;32.60;;;1.60;91.20;;;;;;5078726;28;20227;-80
2021/01/01 06:14:38;;;;;;;62.57;32.67;;;1.60;91.10;;;;;;5082345;28;20504;-82
2021/01/01 06:17:21;;;;;;;61.00;31.90;;;1.60;91.20;;;;;;5074366;28;20470;-81
2021/01/01 06:19:51;;;;;;;63.77;33.23;;;1.60;91.30;;;;;;5080937;28;20209;-81
2021/01/01 06:22:21;;;;;;;70.83;35.63;;;1.50;91.30;;;;;;5077258;28;20242;-79
2021/01/01 06:24:52;;;;;;;61.33;32.23;;;1.70;91.40;;;;;;5083044;28;20198;-82
2021/01/01 06:27:23;;;;;;;63.33;33.03;;;1.60;91.40;;;;;;5074030;28;20201;-80
2021/01/01 06:29:53;;;;;;;63.93;34.67;;;1.60;91.40;;;;;;5077464;28;20201;-79
2021/01/01 06:32:21;;;;;;;66.87;31.63;;;1.60;91.40;;;;;;5085773;28;20181;-81
2021/01/01 06:34:50;;;;;;;62.83;33.10;;;1.60;91.40;;;;;;5101376;28;20181;-81
2021/01/01 06:37:38;;;;;;;63.97;32.40;;;1.60;91.50;;;;;;5096125;28;20213;-80
2021/01/01 06:40:28;;;;;;;63.37;31.50;;;1.60;91.50;;;;;;5084192;28;20208;-80
2021/01/01 06:42:58;;;;;;;66.00;31.60;;;1.60;91.40;;;;;;5099892;28;20185;-80
2021/01/01 06:45:35;;;;;;;64.77;33.20;;;1.60;91.30;;;;;;5083485;28;20197;-80
2021/01/01 06:48:05;;;;;;;70.63;33.43;;;1.50;91.30;;;;;;5094240;28;20619;-81
2021/01/01 06:50:34;;;;;;;72.80;34.07;;;1.60;91.40;;;;;;5100552;28;20173;-81
2021/01/01 06:53:10;;;;;;;68.30;34.83;;;1.60;91.40;;;;;;5081832;28;20235;-83
2021/01/01 06:55:39;;;;;;;69.03;36.03;;;1.60;91.40;;;;;;5073945;28;20358;-79
2021/01/01 06:58:08;;;;;;;70.53;36.70;;;1.60;91.20;;;;;;5088963;28;20224;-80
2021/01/01 07:00:55;;;;;;;72.60;35.83;;;1.60;91.30;;;;;;5071682;28;20383;-81
2021/01/01 07:03:36;;;;;;;66.83;35.13;;;1.60;91.30;;;;;;5073484;28;20207;-81
2021/01/01 07:06:33;;;;;;;72.60;36.27;;;1.60;91.20;;;;;;5075856;28;20201;-80
2021/01/01 07:09:06;;;;;;;68.07;33.57;;;1.60;91.30;;;;;;5062187;28;20787;-81
2021/01/01 07:11:38;;;;;;;69.23;35.03;;;1.60;91.30;;;;;;5072652;28;20197;-81
2021/01/01 07:14:09;;;;;;;69.70;33.70;;;1.60;91.30;;;;;;5073199;28;20200;-82
2021/01/01 07:16:39;;;;;;;68.00;33.83;;;1.60;91.20;;;;;;5064333;28;20221;-81
2021/01/01 07:19:07;;;;;;;69.23;33.73;;;1.60;91.30;;;;;;5079257;28;20192;-80
2021/01/01 07:21:35;;;;;;;69.07;37.50;;;1.60;91.30;;;;;;5072952;28;20413;-80
2021/01/01 07:24:03;;;;;;;68.10;31.40;;;1.60;91.40;;;;;;5063216;28;20200;-81
2021/01/01 07:26:31;;;;;;;66.17;32.20;;;1.60;91.50;;;;;;5059533;28;20783;-80
2021/01/01 07:29:01;;;;;;;40.80;21.53;;;1.60;91.50;;;;;;5068680;28;20212;-80
2021/01/01 07:31:30;;;;;;;66.57;33.87;;;1.50;91.70;;;;;;5059442;28;20686;-82
2021/01/01 07:34:07;;;;;;;41.70;19.47;;;1.40;91.70;;;;;;5068191;28;20208;-79
2021/01/01 07:36:35;;;;;;;57.57;27.80;;;1.40;91.80;;;;;;5057835;28;20780;-81
2021/01/01 07:39:06;;;;;;;69.63;33.70;;;1.40;91.90;;;;;;5067894;28;20524;-81
2021/01/01 07:41:34;;;;;;;70.07;33.90;;;1.30;92.00;;;;;;5086099;28;20201;-82
2021/01/01 07:44:01;;;;;;;67.70;31.90;;;1.20;92.10;;;;;;5073120;28;20928;-82
2021/01/01 07:46:32;;;;;;;57.17;27.13;;;1.30;92.00;;;;;;5064225;28;20197;-79
2021/01/01 07:49:01;;;;;;;69.57;33.83;;;1.30;92.00;;;;;;5064408;28;20421;-79
2021/01/01 07:51:29;;;;;;;69.77;34.60;;;1.40;92.00;;;;;;5068196;28;20201;-81
2021/01/01 07:54:15;;;;;;;73.37;32.30;;;1.30;92.10;;;;;;5075978;28;20212;-79
2021/01/01 07:56:42;;;;;;;60.63;29.23;;;1.40;92.10;;;;;;5068302;28;20307;-81
2021/01/01 07:59:10;;;;;;;71.20;34.80;;;1.30;92.00;;;;;;5071206;28;20205;-82
2021/01/01 08:01:39;;;;;;;70.27;34.53;;;1.30;92.00;;;;;;5075298;28;20205;-81
2021/01/01 08:04:14;;;;;;;71.40;34.07;;;1.40;92.10;;;;;;5059205;28;20730;-81
2021/01/01 08:06:42;;;;;;;62.37;28.10;;;1.30;92.10;;;;;;5066479;28;20203;-81
2021/01/01 08:09:10;;;;;;;69.40;34.67;;;1.40;92.10;;;;;;5069180;28;20652;-80
2021/01/01 08:11:37;;;;;;;75.10;34.03;;;1.40;92.10;;;;;;5064232;28;20294;-80
2021/01/01 08:14:06;;;;;;;73.67;35.13;;;1.40;92.20;;;;;;5072230;28;20201;-81
2021/01/01 08:16:33;;;;;;;72.30;34.07;;;1.40;92.20;;;;;;5090015;28;20217;-82
2021/01/01 08:19:02;;;;;;;66.87;32.57;;;1.40;92.20;;;;;;5071490;28;20186;-81
2021/01/01 08:21:35;;;;;;;78.20;33.20;;;1.40;92.20;;;;;;5088355;28;20764;-81
2021/01/01 08:24:08;;;;;;;69.67;34.23;;;1.50;92.10;;;;;;5068722;28;20200;-82
2021/01/01 08:26:38;;;;;;;70.93;34.60;;;1.40;92.00;;;;;;5063856;28;20532;-80
2021/01/01 08:29:12;;;;;;;71.73;35.00;;;1.40;92.10;;;;;;5086456;28;20504;-80
2021/01/01 08:31:45;;;;;;;81.33;37.60;;;1.50;92.20;;;;;;5069379;28;20204;-81
2021/01/01 08:34:14;;;;;;;74.37;37.63;;;1.60;92.30;;;;;;5096725;28;20275;-81
2021/01/01 08:36:42;;;;;;;75.53;37.57;;;1.50;92.10;;;;;;5096941;28;20455;-81
2021/01/01 08:39:11;;;;;;;84.57;38.03;;;1.50;92.10;;;;;;5075760;28;20185;-82
2021/01/01 08:41:43;;;;;;;75.10;38.57;;;1.60;92.10;;;;;;5090408;28;20421;-80
2021/01/01 08:44:11;;;;;;;79.70;36.90;;;1.60;92.10;;;;;;5072850;28;20204;-81
2021/01/01 08:46:39;;;;;;;82.23;40.40;;;1.60;92.00;;;;;;5087844;28;20230;-81
2021/01/01 08:49:18;;;;;;;82.67;38.40;;;1.70;91.90;;;;;;5112585;28;20176;-80
2021/01/01 08:51:46;;;;;;;81.80;37.23;;;1.70;91.80;;;;;;5097109;28;20181;-81
2021/01/01 08:54:25;;;;;;;78.43;37.03;;;1.70;91.70;;;;;;5072104;28;20215;-79
2021/01/01 08:57:00;;;;;;;72.00;36.27;;;1.70;91.60;;;;;;5076771;28;20238;-82
2021/01/01 08:59:29;;;;;;;81.50;39.13;;;1.70;91.70;;;;;;5067326;28;20751;-80
2021/01/01 09:01:59;;;;;;;75.57;37.57;;;1.70;91.70;;;;;;5075346;28;20207;-81
2021/01/01 09:04:29;;;;;;;80.67;38.97;;;1.70;91.60;;;;;;5077024;28;20695;-82
2021/01/01 09:06:59;;;;;;;81.70;40.00;;;1.70;91.50;;;;;;5067346;28;20431;-80
2021/01/01 09:09:29;;;;;;;75.90;37.40;;;1.80;91.50;;;;;;5070638;28;20196;-80
2021/01/01 09:12:13;;;;;;;81.70;40.93;;;1.80;91.40;;;;;;5088476;28;20196;-80
2021/01/01 09:14:51;;;;;;;76.07;38.57;;;1.80;91.30;;;;;;5077375;28;20300;-81
2021/01/01 09:17:20;;;;;;;75.93;38.97;;;1.90;91.40;;;;;;5082499;28;20242;-79
2021/01/01 09:20:03;;;;;;;75.60;36.30;;;1.90;91.20;;;;;;5086458;28;20617;-81
2021/01/01 09:22:35;;;;;;;79.93;37.90;;;2.00;91.20;;;;;;5071166;28;20706;-80
2021/01/01 09:25:20;;;;;;;70.13;36.03;;;2.00;91.00;;;;;;5081359;28;20189;-81
2021/01/01 09:27:49;;;;;;;71.20;35.50;;;1.90;91.00;;;;;;5073171;28;20716;-82
2021/01/01 09:30:20;;;;;;;71.07;35.77;;;2.00;90.90;;;;;;5065088;28;20859;-80
2021/01/01 09:32:48;;;;;;;73.53;36.50;;;1.90;90.90;;;;;;5079524;28;20197;-79
2021/01/01 09:35:17;;;;;;;71.33;36.77;;;1.90;90.90;;;;;;5075336;28;20234;-81
2021/01/01 09:37:51;;;;;;;70.33;34.63;;;1.80;90.90;;;;;;5060704;28;20312;-82
2021/01/01 09:40:19;;;;;;;66.33;34.43;;;1.90;90.90;;;;;;5080201;28;20189;-80
2021/01/01 09:42:47;;;;;;;67.83;33.43;;;1.90;90.60;;;;;;5086691;28;20193;-81
2021/01/01 09:45:16;;;;;;;69.93;33.13;;;1.80;90.70;;;;;;5083224;28;20549;-82
2021/01/01 09:47:46;;;;;;;66.10;33.20;;;1.70;90.70;;;;;;5094749;28;20726;-82
2021/01/01 09:50:14;;;;;;;69.43;34.30;;;1.80;90.80;;;;;;5067970;28;20327;-81
2021/01/01 09:52:43;;;;;;;65.87;33.03;;;1.80;90.90;;;;;;5070868;28;20292;-82
2021/01/01 09:55:10;;;;;;;60.37;31.97;;;1.80;91.00;;;;;;5080815;28;20623;-80
2021/01/01 09:57:39;;;;;;;66.53;33.53;;;1.80;91.10;;;;;;5072615;28;20706;-81
2021/01/01 10:00:11;;;;;;;66.00;31.20;;;1.80;91.20;;;;;;5059587;28;20441;-82
2021/01/01 10:02:39;;;;;;;61.97;31.90;;;1.90;91.20;;;;;;5079001;28;20201;-81
2021/01/01 10:05:07;;;;;;;61.73;31.00;;;1.80;91.00;;;;;;5070548;28;20205;-81
2021/01/01 10:07:35;;;;;;;56.00;28.23;;;1.80;91.00;;;;;;5068358;28;20231;-81
2021/01/01 10:10:05;;;;;;;63.50;28.60;;;1.70;91.00;;;;;;5073353;28;20935;-80
2021/01/01 10:12:32;;;;;;;57.80;27.87;;;1.80;91.00;;;;;;5072697;28;20266;-82
2021/01/01 10:15:03;;;;;;;54.47;27.93;;;1.60;90.80;;;;;;5070400;28;20197;-80
2021/01/01 10:17:31;;;;;;;53.13;28.07;;;1.60;91.00;;;;;;5071938;28;20220;-83
2021/01/01 10:19:59;;;;;;;55.20;29.10;;;1.70;91.20;;;;;;5067358;28;20292;-81
2021/01/01 10:22:27;;;;;;;55.50;27.47;;;1.60;91.30;;;;;;5061956;28;20667;-81
2021/01/01 10:24:54;;;;;;;54.43;28.90;;;1.60;91.30;;;;;;5085904;28;20557;-80
2021/01/01 10:27:23;;;;;;;52.30;27.30;;;1.70;91.40;;;;;;5077377;28;20201;-81
2021/01/01 10:29:50;;;;;;;56.57;28.17;;;1.70;91.30;;;;;;5069175;28;20303;-81
2021/01/01 10:32:18;;;;;;;49.73;27.47;;;1.60;91.30;;;;;;5077255;28;20201;-80
2021/01/01 10:34:45;;;;;;;52.07;25.67;;;1.80;91.40;;;;;;5068698;28;20201;-82
2021/01/01 10:37:13;;;;;;;42.40;21.97;;;1.60;91.10;;;;;;5076550;28;20661;-84
2021/01/01 10:39:41;;;;;;;47.43;22.97;;;1.60;91.00;;;;;;5081929;28;20624;-81
2021/01/01 10:42:09;;;;;;;44.80;24.87;;;1.60;90.80;;;;;;5077389;28;20207;-82
2021/01/01 10:44:38;;;;;;;48.23;25.20;;;1.50;90.90;;;;;;5064711;28;20200;-81
2021/01/01 10:47:05;;;;;;;47.47;25.73;;;1.50;91.00;;;;;;5074600;28;20197;-81
2021/01/01 10:49:34;;;;;;;51.27;24.37;;;1.40;91.10;;;;;;5063807;28;20270;-81
2021/01/01 10:52:03;;;;;;;49.87;25.30;;;1.40;91.30;;;;;;5076734;28;20502;-81
2021/01/01 10:54:31;;;;;;;51.00;25.23;;;1.40;91.50;;;;;;5071820;28;20444;-80
2021/01/01 10:56:58;;;;;;;50.23;25.13;;;1.40;91.60;;;;;;5065158;28;20225;-80
2021/01/01 10:59:26;;;;;;;44.87;23.37;;;1.40;91.50;;;;;;5070405;28;20201;-81
2021/01/01 11:01:55;;;;;;;44.03;23.70;;;1.40;91.50;;;;;;5079084;28;20665;-79
2021/01/01 11:04:24;;;;;;;46.37;23.60;;;1.30;91.50;;;;;;5066831;28;20193;-82
2021/01/01 11:06:51;;;;;;;47.33;22.27;;;1.30;91.60;;;;;;5068160;28;20566;-80
2021/01/01 11:09:19;;;;;;;46.67;22.33;;;1.30;91.50;;;;;;5093797;28;20277;-82
2021/01/01 11:11:48;;;;;;;41.30;21.17;;;1.20;91.50;;;;;;5094649;28;20209;-79
2021/01/01 11:14:20;;;;;;;50.43;23.40;;;1.30;91.60;;;;;;5104804;28;20230;-82
2021/01/01 12:23:44;;;;;;;36.00;18.07;;;1.40;91.30;;;;;;5045603;28;20440;-81
2021/01/01 12:26:13;;;;;;;40.03;18.90;;;1.40;91.20;;;;;;5071750;28;20464;-83
2021/01/01 12:29:02;;;;;;;37.13;17.63;;;1.40;91.30;;;;;;5071064;28;20634;-81
2021/01/01 12:31:31;;;;;;;46.03;18.97;;;1.40;91.30;;;;;;5077521;28;20204;-82
2021/01/01 12:33:59;;;;;;;36.73;19.30;;;1.30;91.30;;;;;;5066501;28;20212;-81
2021/01/01 12:36:26;;;;;;;37.20;17.70;;;1.30;91.40;;;;;;5075553;28;20191;-82
2021/01/01 12:38:54;;;;;;;34.40;18.50;;;1.30;91.50;;;;;;5093327;28;20562;-82
2021/01/01 12:41:22;;;;;;;33.23;17.63;;;1.40;91.50;;;;;;5083041;28;20329;-81
2021/01/01 12:43:49;;;;;;;33.80;16.97;;;1.40;91.40;;;;;;5081882;28;20204;-82
2021/01/01 12:46:17;;;;;;;35.23;16.27;;;1.30;91.20;;;;;;5082755;28;20528;-81
2021/01/01 12:48:45;;;;;;;35.77;17.33;;;1.20;91.20;;;;;;5071312;28;20205;-80
2021/01/01 12:51:12;;;;;;;33.20;17.63;;;1.20;91.40;;;;;;5078881;28;20197;-82
2021/01/01 12:53:40;;;;;;;33.17;16.30;;;1.20;91.40;;;;;;5081649;28;20664;-82
2021/01/01 12:56:07;;;;;;;32.53;16.90;;;1.20;91.40;;;;;;5071845;28;20231;-80
2021/01/01 12:58:36;;;;;;;34.70;17.03;;;1.20;91.30;;;;;;5064032;28;20220;-82
2021/01/01 13:01:04;;;;;;;34.70;17.87;;;1.20;91.50;;;;;;5079588;28;20192;-83
2021/01/01 13:03:32;;;;;;;37.83;19.20;;;1.30;91.60;;;;;;5064489;28;20697;-81
2021/01/01 13:05:59;;;;;;;37.90;18.50;;;1.30;91.60;;;;;;5079401;28;20201;-81
2021/01/01 13:08:27;;;;;;;37.67;19.20;;;1.30;91.60;;;;;;5060770;28;20254;-80
2021/01/01 13:10:54;;;;;;;40.50;19.33;;;1.40;91.60;;;;;;5067535;28;20620;-80
2021/01/01 13:13:22;;;;;;;43.47;19.53;;;1.40;91.50;;;;;;5073976;28;20514;-80
2021/01/01 13:15:51;;;;;;;38.27;20.87;;;1.40;91.60;;;;;;5070161;28;20219;-81
2021/01/01 13:18:18;;;;;;;38.73;19.80;;;1.30;91.60;;;;;;5082450;27;20524;-82
2021/01/01 13:20:45;;;;;;;37.47;19.13;;;1.30;91.70;;;;;;5081119;28;20192;-79
2021/01/01 13:23:13;;;;;;;39.43;19.90;;;1.20;91.70;;;;;;5070331;28;20694;-80
2021/01/01 13:25:40;;;;;;;34.20;17.30;;;1.30;91.80;;;;;;5074351;28;20193;-82
2021/01/01 13:28:08;;;;;;;35.83;18.23;;;1.40;91.80;;;;;;5080261;28;20425;-81
2021/01/01 13:30:35;;;;;;;33.57;17.07;;;1.20;91.70;;;;;;5070154;28;20267;-79
2021/01/01 13:33:04;;;;;;;28.97;16.03;;;1.10;91.60;;;;;;5069014;28;20679;-80
2021/01/01 13:35:32;;;;;;;32.70;15.77;;;1.10;91.60;;;;;;5083399;28;20200;-80
2021/01/01 13:38:00;;;;;;;35.67;16.57;;;1.00;91.60;;;;;;5075019;28;20300;-79
2021/01/01 13:40:28;;;;;;;28.43;14.53;;;1.00;91.70;;;;;;5069629;28;20204;-79
2021/01/01 13:42:56;;;;;;;29.23;15.60;;;0.90;91.60;;;;;;5090056;28;20192;-80
2021/01/01 13:45:23;;;;;;;29.57;14.07;;;1.00;91.60;;;;;;5088135;28;20521;-82
2021/01/01 13:47:51;;;;;;;31.00;15.53;;;0.90;91.40;;;;;;5096578;27;20269;-82
2021/01/01 13:50:20;;;;;;;32.37;16.53;;;1.10;91.50;;;;;;5088017;28;20200;-80
2021/01/01 13:52:47;;;;;;;31.33;15.60;;;0.90;91.50;;;;;;5056179;28;20309;-82